Time;durP1;ratioP1;P1;durP2;ratioP2;P2;SDS_P1;SDS_P2;PMS_P1;PMS_P2;Temp;Humidity;BMP_temperature;BMP_pressure;BME280_temperature;BME280_humidity;BME280_pressure;Samples;Min_cycle;Max_cycle;Signal;HPM_P1;HPM_P2
2021/12/10 00:01:57;;;;;;;5.07;4.67;;;;;;;-0.01;100.00;96781.41;4966359;28;20198;-72
2021/12/10 00:04:34;;;;;;;5.50;4.40;;;;;;;0.04;100.00;96778.44;4944946;28;20465;-73
2021/12/10 00:07:05;;;;;;;5.50;5.10;;;;;;;0.05;100.00;96774.88;4964336;28;20526;-74
2021/12/10 00:09:38;;;;;;;4.50;4.03;;;;;;;0.02;100.00;96771.69;4961118;28;20245;-70
2021/12/10 00:12:09;;;;;;;4.67;4.27;;;;;;;0.06;100.00;96770.47;4951002;28;20523;-71
2021/12/10 00:14:37;;;;;;;5.70;4.40;;;;;;;0.07;100.00;96764.28;4945090;28;20225;-70
2021/12/10 00:17:08;;;;;;;4.70;4.30;;;;;;;0.14;100.00;96763.66;4942588;28;20223;-71
2021/12/10 00:19:41;;;;;;;4.63;4.10;;;;;;;0.20;100.00;96762.34;4962594;28;20233;-70
2021/12/10 00:22:11;;;;;;;5.73;4.50;;;;;;;0.23;100.00;96758.63;4957103;28;21364;-71
2021/12/10 00:24:42;;;;;;;5.67;4.20;;;;;;;0.14;100.00;96760.22;4962426;28;20220;-72
2021/12/10 00:27:10;;;;;;;3.60;3.40;;;;;;;0.20;100.00;96746.69;4970076;28;20375;-72
2021/12/10 00:29:42;;;;;;;4.93;4.17;;;;;;;0.21;100.00;96742.31;4936171;28;20588;-71
2021/12/10 00:32:18;;;;;;;6.33;4.63;;;;;;;0.30;100.00;96744.13;4962383;28;20602;-72
2021/12/10 00:34:49;;;;;;;3.93;3.60;;;;;;;0.17;100.00;96733.91;4959488;28;20229;-73
2021/12/10 00:37:20;;;;;;;6.00;4.13;;;;;;;0.13;100.00;96740.34;4969998;28;20308;-72
2021/12/10 00:39:52;;;;;;;5.50;3.50;;;;;;;0.20;100.00;96733.66;4954135;28;20232;-73
2021/12/10 00:42:24;;;;;;;8.63;4.20;;;;;;;0.20;100.00;96725.03;4968069;28;20210;-70
2021/12/10 00:44:52;;;;;;;6.10;3.80;;;;;;;0.25;100.00;96723.69;4930870;28;20709;-72
2021/12/10 00:47:20;;;;;;;4.13;3.63;;;;;;;0.11;100.00;96713.59;4951199;28;20217;-72
2021/12/10 00:49:49;;;;;;;4.00;3.70;;;;;;;0.16;100.00;96710.59;4955290;28;20237;-72
2021/12/10 00:52:17;;;;;;;3.90;3.60;;;;;;;0.20;100.00;96701.56;4957669;28;20789;-71
2021/12/10 00:54:46;;;;;;;3.50;3.30;;;;;;;0.13;100.00;96701.25;4973044;28;20229;-73
2021/12/10 00:57:15;;;;;;;6.07;4.23;;;;;;;0.12;100.00;96694.41;4966215;28;20300;-71
2021/12/10 00:59:45;;;;;;;4.73;3.93;;;;;;;0.04;100.00;96700.28;4921770;28;20240;-73
2021/12/10 01:02:15;;;;;;;7.27;3.77;;;;;;;0.16;100.00;96694.97;4956250;28;20214;-71
2021/12/10 01:04:47;;;;;;;4.60;3.23;;;;;;;0.14;100.00;96695.94;4953277;28;20236;-73
2021/12/10 01:07:19;;;;;;;8.10;3.80;;;;;;;0.20;100.00;96689.38;4966408;28;20213;-71
2021/12/10 01:09:49;;;;;;;5.10;3.80;;;;;;;0.12;100.00;96687.41;4964849;28;20610;-73
2021/12/10 01:12:20;;;;;;;4.03;3.73;;;;;;;0.13;100.00;96677.81;4965334;28;20406;-72
2021/12/10 01:15:03;;;;;;;4.80;3.03;;;;;;;0.17;100.00;96681.78;4956897;28;20236;-73
2021/12/10 01:26:08;;;;;;;4.73;3.93;;;;;;;-0.04;100.00;96655.78;4960174;28;20725;-74
2021/12/10 01:28:42;;;;;;;4.43;3.30;;;;;;;-0.09;100.00;96647.56;4958705;28;20732;-71
2021/12/10 01:31:10;;;;;;;4.37;3.90;;;;;;;-0.12;100.00;96643.44;4933118;28;20226;-71
2021/12/10 01:33:39;;;;;;;4.07;3.70;;;;;;;-0.17;100.00;96637.81;4956378;28;20240;-70
2021/12/10 01:36:08;;;;;;;4.47;4.00;;;;;;;-0.21;100.00;96641.59;4950304;28;20219;-73
2021/12/10 01:38:37;;;;;;;5.07;3.40;;;;;;;-0.18;100.00;96639.56;4962792;28;20225;-71
2021/12/10 01:41:09;;;;;;;4.20;3.80;;;;;;;-0.17;100.00;96636.00;4954199;28;20604;-72
2021/12/10 01:43:40;;;;;;;4.97;3.90;;;;;;;-0.20;100.00;96627.63;4960731;28;20232;-71
2021/12/10 01:46:11;;;;;;;6.77;4.13;;;;;;;-0.14;100.00;96621.91;4925813;28;20892;-68
2021/12/10 01:48:43;;;;;;;3.90;3.53;;;;;;;-0.07;100.00;96620.44;4957824;28;20225;-71
2021/12/10 01:51:15;;;;;;;4.80;3.90;;;;;;;-0.16;100.00;96611.63;4967779;28;20347;-71
2021/12/10 01:53:46;;;;;;;5.87;3.93;;;;;;;-0.19;100.00;96613.66;4959321;28;20251;-73
2021/12/10 01:56:17;;;;;;;6.47;4.47;;;;;;;-0.15;100.00;96612.47;4963003;28;20862;-72
2021/12/10 01:58:47;;;;;;;4.37;4.07;;;;;;;-0.20;100.00;96609.41;4957223;28;20230;-72
2021/12/10 02:01:19;;;;;;;6.03;4.30;;;;;;;-0.15;100.00;96608.06;4940395;28;20320;-71
2021/12/10 02:03:49;;;;;;;3.83;3.53;;;;;;;-0.12;100.00;96601.78;4965775;28;20248;-74
2021/12/10 02:06:17;;;;;;;6.93;4.30;;;;;;;-0.11;100.00;96597.38;4966345;28;20352;-70
2021/12/10 02:08:46;;;;;;;3.30;3.10;;;;;;;-0.16;100.00;96597.78;4964052;28;20234;-72
2021/12/10 02:11:14;;;;;;;5.17;4.67;;;;;;;-0.12;100.00;96585.31;4958683;28;20408;-72
2021/12/10 02:13:43;;;;;;;4.30;3.90;;;;;;;-0.16;100.00;96574.34;4958527;28;20256;-73
2021/12/10 02:16:12;;;;;;;4.03;3.73;;;;;;;-0.19;100.00;96566.78;4940094;28;20213;-71
2021/12/10 02:18:40;;;;;;;4.03;3.60;;;;;;;-0.14;100.00;96559.41;4965479;28;20737;-73
2021/12/10 02:21:19;;;;;;;3.33;3.03;;;;;;;-0.07;100.00;96551.88;4948546;28;20495;-70
2021/12/10 02:23:55;;;;;;;6.80;5.03;;;;;;;-0.05;100.00;96550.81;4944411;28;20345;-73
2021/12/10 02:26:26;;;;;;;6.83;3.90;;;;;;;0.02;100.00;96543.28;4973038;28;20198;-70
2021/12/10 02:28:54;;;;;;;3.93;3.63;;;;;;;0.01;100.00;96543.41;4945710;28;20654;-73
2021/12/10 02:31:22;;;;;;;3.23;2.93;;;;;;;-0.03;100.00;96537.63;4939266;28;20221;-72
2021/12/10 02:33:51;;;;;;;5.43;3.37;;;;;;;-0.02;100.00;96534.91;4962194;28;20285;-72
2021/12/10 02:36:20;;;;;;;6.80;3.77;;;;;;;-0.03;100.00;96532.44;4960975;28;20224;-71
2021/12/10 02:38:50;;;;;;;4.10;3.70;;;;;;;-0.04;100.00;96529.00;4965247;28;20600;-71
2021/12/10 02:41:20;;;;;;;3.93;3.63;;;;;;;0.02;100.00;96524.22;4956119;28;20891;-70
2021/12/10 02:43:48;;;;;;;5.13;3.60;;;;;;;-0.09;100.00;96522.53;4973367;28;20560;-72
2021/12/10 02:46:17;;;;;;;7.10;4.10;;;;;;;-0.05;100.00;96524.75;4934786;28;20433;-71
2021/12/10 02:48:45;;;;;;;4.03;3.63;;;;;;;-0.05;100.00;96527.38;4969622;28;20226;-71
2021/12/10 02:51:14;;;;;;;4.30;3.43;;;;;;;-0.01;100.00;96517.47;4957364;28;20530;-70
2021/12/10 02:53:45;;;;;;;6.23;4.57;;;;;;;0.01;100.00;96518.19;4957757;28;20221;-72
2021/12/10 02:56:16;;;;;;;3.30;3.10;;;;;;;-0.01;100.00;96510.50;4966373;28;20214;-71
2021/12/10 02:58:46;;;;;;;4.33;3.80;;;;;;;-0.03;100.00;96501.16;4957337;28;20725;-72
2021/12/10 03:01:18;;;;;;;8.13;3.83;;;;;;;0.04;100.00;96501.47;4963229;28;20218;-72
2021/12/10 03:03:46;;;;;;;4.83;4.43;;;;;;;-0.08;100.00;96504.19;4934470;28;20221;-72
2021/12/10 03:06:16;;;;;;;4.90;3.77;;;;;;;-0.07;100.00;96485.00;4937709;28;20317;-73
2021/12/10 03:08:48;;;;;;;5.13;4.63;;;;;;;-0.01;100.00;96497.50;4972622;28;20577;-70
2021/12/10 03:11:18;;;;;;;4.73;3.53;;;;;;;-0.04;100.00;96491.72;4938758;28;20223;-73
2021/12/10 03:13:47;;;;;;;4.80;3.53;;;;;;;-0.08;100.00;96493.78;4973956;28;20213;-70
2021/12/10 03:16:16;;;;;;;7.20;3.77;;;;;;;-0.09;100.00;96486.09;4949226;28;20271;-73
2021/12/10 03:18:45;;;;;;;6.67;3.80;;;;;;;-0.03;100.00;96485.53;4939581;28;20233;-72
2021/12/10 03:21:13;;;;;;;4.87;4.00;;;;;;;0.06;100.00;96473.50;4965509;28;20217;-73
2021/12/10 03:23:49;;;;;;;4.07;3.33;;;;;;;-0.06;100.00;96481.44;4954076;28;20634;-69
2021/12/10 03:26:22;;;;;;;5.90;3.77;;;;;;;-0.04;100.00;96463.06;4955192;28;20759;-73
2021/12/10 03:28:52;;;;;;;5.17;4.53;;;;;;;-0.08;100.00;96472.09;4961676;28;20233;-70
2021/12/10 03:31:21;;;;;;;5.50;4.53;;;;;;;-0.08;100.00;96472.09;4959892;28;20682;-71
2021/12/10 03:33:51;;;;;;;5.53;5.00;;;;;;;-0.08;100.00;96466.91;4941759;28;20300;-69
2021/12/10 03:36:19;;;;;;;6.10;5.60;;;;;;;-0.07;100.00;96458.13;4941100;28;20261;-72
2021/12/10 03:38:49;;;;;;;5.33;4.83;;;;;;;-0.23;100.00;96453.44;4976197;28;20258;-68
2021/12/10 03:41:18;;;;;;;5.73;5.13;;;;;;;-0.17;100.00;96443.31;4944481;28;20258;-69
2021/12/10 03:43:48;;;;;;;5.57;5.07;;;;;;;-0.24;100.00;96446.59;4972238;28;20228;-69
2021/12/10 03:46:17;;;;;;;6.13;5.60;;;;;;;-0.34;100.00;96439.59;4957578;28;20205;-70
2021/12/10 03:48:46;;;;;;;6.50;5.77;;;;;;;-0.37;100.00;96432.03;4973948;28;20589;-68
2021/12/10 03:51:17;;;;;;;7.97;5.80;;;;;;;-0.34;100.00;96428.38;4934607;28;20729;-69
2021/12/10 03:53:45;;;;;;;6.13;5.50;;;;;;;-0.28;100.00;96426.97;4953882;28;20222;-67
2021/12/10 03:56:17;;;;;;;7.43;6.20;;;;;;;-0.35;100.00;96426.72;4968168;28;20233;-73
2021/12/10 03:58:46;;;;;;;10.13;6.87;;;;;;;-0.37;100.00;96424.22;4950136;28;20233;-71
2021/12/10 04:01:16;;;;;;;8.03;6.50;;;;;;;-0.33;100.00;96425.59;4964772;28;20221;-74
2021/12/10 04:03:45;;;;;;;6.87;5.90;;;;;;;-0.32;100.00;96424.66;4976586;28;20573;-70
2021/12/10 04:06:13;;;;;;;7.07;6.40;;;;;;;-0.30;100.00;96429.75;4939442;28;20674;-72
2021/12/10 04:08:42;;;;;;;7.53;6.23;;;;;;;-0.36;100.00;96422.47;4961706;28;20642;-71
2021/12/10 04:11:14;;;;;;;7.17;6.47;;;;;;;-0.30;100.00;96427.13;4953409;28;20525;-74
2021/12/10 04:13:45;;;;;;;7.23;6.53;;;;;;;-0.34;100.00;96429.16;4964657;28;20240;-72
2021/12/10 04:16:13;;;;;;;8.97;6.50;;;;;;;-0.31;100.00;96415.88;4963882;28;20607;-73
2021/12/10 04:18:42;;;;;;;6.13;5.43;;;;;;;-0.25;100.00;96419.75;4967374;28;20461;-70
2021/12/10 04:21:13;;;;;;;6.80;6.10;;;;;;;-0.26;100.00;96418.09;4937733;28;20721;-73
2021/12/10 04:23:42;;;;;;;9.57;6.13;;;;;;;-0.17;100.00;96416.47;4958046;28;20574;-72
2021/12/10 04:26:10;;;;;;;7.43;6.70;;;;;;;-0.18;100.00;96412.22;4967606;28;20206;-75
2021/12/10 04:28:39;;;;;;;9.10;6.97;;;;;;;-0.19;100.00;96411.38;4944964;28;20374;-70
2021/12/10 04:31:10;;;;;;;7.73;6.90;;;;;;;-0.22;100.00;96409.06;4966748;28;20217;-72
2021/12/10 04:33:38;;;;;;;6.87;6.20;;;;;;;-0.24;100.00;96408.38;4970141;28;22140;-70
2021/12/10 04:36:08;;;;;;;7.83;6.37;;;;;;;-0.34;100.00;96400.53;4908659;28;20234;-71
2021/12/10 04:38:36;;;;;;;6.87;6.23;;;;;;;-0.27;100.00;96394.78;4957670;28;20233;-72
2021/12/10 04:41:09;;;;;;;6.93;6.33;;;;;;;-0.30;100.00;96395.91;4971734;28;20213;-69
2021/12/10 04:43:39;;;;;;;8.03;6.77;;;;;;;-0.27;100.00;96389.56;4955390;28;20497;-71
2021/12/10 04:46:07;;;;;;;7.97;7.20;;;;;;;-0.33;100.00;96383.97;4970175;28;20571;-69
2021/12/10 04:48:47;;;;;;;6.97;6.37;;;;;;;-0.40;100.00;96380.25;4967530;28;20225;-72
2021/12/10 04:51:19;;;;;;;9.63;6.77;;;;;;;-0.42;100.00;96382.16;4942072;28;20580;-69
2021/12/10 04:53:47;;;;;;;8.30;7.47;;;;;;;-0.43;100.00;96380.53;4936923;28;20461;-69
2021/12/10 04:56:15;;;;;;;7.97;7.23;;;;;;;-0.48;100.00;96380.91;4971515;28;20229;-68
2021/12/10 04:58:43;;;;;;;7.87;6.60;;;;;;;-0.51;100.00;96378.59;4954456;28;20674;-70
2021/12/10 05:01:11;;;;;;;7.73;7.00;;;;;;;-0.52;100.00;96369.13;4966188;28;20209;-69
2021/12/10 05:03:40;;;;;;;8.93;7.43;;;;;;;-0.53;100.00;96370.09;4968622;28;20214;-72
2021/12/10 05:06:09;;;;;;;7.87;6.60;;;;;;;-0.53;100.00;96362.28;4937507;28;20231;-70
2021/12/10 05:08:40;;;;;;;8.67;7.20;;;;;;;-0.63;100.00;96359.66;4963152;28;20233;-72
2021/12/10 05:11:10;;;;;;;8.17;7.33;;;;;;;-0.60;100.00;96359.38;4957953;28;20243;-69
2021/12/10 05:13:40;;;;;;;8.37;7.23;;;;;;;-0.69;100.00;96349.00;4966681;28;20206;-73
2021/12/10 05:16:09;;;;;;;9.83;7.67;;;;;;;-0.75;100.00;96355.53;4958391;28;20600;-70
2021/12/10 05:18:43;;;;;;;9.37;8.23;;;;;;;-0.81;100.00;96350.88;4954275;28;20811;-72
2021/12/10 05:21:15;;;;;;;7.90;7.20;;;;;;;-1.01;100.00;96340.41;4967979;28;20214;-68
2021/12/10 05:23:43;;;;;;;8.80;7.30;;;;;;;-1.13;100.00;96329.31;4923973;28;20496;-68
2021/12/10 05:26:11;;;;;;;11.50;8.57;;;;;;;-1.11;100.00;96329.16;4961241;28;20209;-67
2021/12/10 05:28:39;;;;;;;9.63;8.23;;;;;;;-1.21;100.00;96324.75;4952933;28;20262;-68
2021/12/10 05:31:08;;;;;;;9.37;8.43;;;;;;;-1.25;100.00;96325.97;4952746;28;21892;-68
2021/12/10 05:33:36;;;;;;;9.43;8.40;;;;;;;-1.22;100.00;96328.31;4971969;28;20299;-68
2021/12/10 05:36:05;;;;;;;11.40;8.13;;;;;;;-1.32;100.00;96333.47;4950170;28;20254;-68
2021/12/10 05:38:36;;;;;;;11.10;8.83;;;;;;;-1.28;100.00;96336.63;4934049;28;20259;-68
2021/12/10 05:41:09;;;;;;;14.63;8.93;;;;;;;-1.35;100.00;96328.53;4947006;28;20448;-68
2021/12/10 05:43:38;;;;;;;11.03;8.60;;;;;;;-1.48;100.00;96328.75;4953716;28;20235;-68
2021/12/10 05:46:06;;;;;;;9.47;8.47;;;;;;;-1.39;100.00;96321.09;4969296;28;20448;-68
2021/12/10 05:48:34;;;;;;;10.20;8.43;;;;;;;-1.47;100.00;96312.19;4943546;28;20473;-73
2021/12/10 05:51:03;;;;;;;9.30;8.20;;;;;;;-1.61;100.00;96312.56;4964244;28;20209;-69
2021/12/10 05:53:32;;;;;;;10.33;9.03;;;;;;;-1.63;100.00;96310.06;4932795;28;20214;-69
2021/12/10 05:56:03;;;;;;;10.73;9.27;;;;;;;-1.72;100.00;96316.03;4951874;28;20238;-72
2021/12/10 05:58:31;;;;;;;12.57;9.27;;;;;;;-1.79;100.00;96307.94;4953855;28;20793;-71
2021/12/10 06:01:02;;;;;;;9.17;8.07;;;;;;;-1.80;100.00;96303.69;4969682;28;20446;-71
2021/12/10 06:03:31;;;;;;;9.47;8.57;;;;;;;-1.87;100.00;96299.97;4943142;28;20225;-72
2021/12/10 06:06:00;;;;;;;12.57;10.50;;;;;;;-1.88;100.00;96295.72;4964227;28;20237;-72
2021/12/10 06:08:29;;;;;;;14.20;10.47;;;;;;;-1.84;100.00;96293.69;4940045;28;20602;-74
2021/12/10 06:10:58;;;;;;;12.47;9.23;;;;;;;-1.90;100.00;96293.25;4950884;28;20221;-69
2021/12/10 06:13:28;;;;;;;13.63;9.83;;;;;;;-1.85;100.00;96289.47;4957290;28;20217;-70
2021/12/10 06:15:56;;;;;;;11.40;10.23;;;;;;;-1.96;100.00;96285.16;4973833;28;20451;-72
2021/12/10 06:18:24;;;;;;;14.97;12.67;;;;;;;-2.01;100.00;96279.53;4963574;28;20608;-75
2021/12/10 06:20:54;;;;;;;19.33;14.13;;;;;;;-2.02;100.00;96280.47;4969997;28;20733;-75
2021/12/10 06:23:22;;;;;;;21.93;16.07;;;;;;;-2.08;100.00;96272.25;4972292;28;20460;-69
2021/12/10 06:25:50;;;;;;;16.67;13.07;;;;;;;-2.09;100.00;96262.78;4935637;28;20479;-72
2021/12/10 06:28:19;;;;;;;12.83;11.53;;;;;;;-2.17;100.00;96259.22;4966585;28;20480;-73
2021/12/10 06:30:50;;;;;;;14.87;11.27;;;;;;;-2.22;100.00;96247.44;4967750;28;20448;-74
2021/12/10 06:33:23;;;;;;;14.60;12.67;;;;;;;-2.14;100.00;96243.38;4962580;28;20805;-71
2021/12/10 06:35:53;;;;;;;20.00;12.27;;;;;;;-2.07;100.00;96239.31;4959062;28;20225;-73
2021/12/10 06:38:22;;;;;;;14.93;11.27;;;;;;;-2.10;100.00;96235.19;4956487;28;20483;-71
2021/12/10 06:40:52;;;;;;;15.13;11.43;;;;;;;-2.21;100.00;96235.28;4939091;28;20838;-73
2021/12/10 06:43:21;;;;;;;15.93;12.67;;;;;;;-2.24;100.00;96230.34;4961374;28;21124;-70
2021/12/10 06:45:52;;;;;;;14.07;12.43;;;;;;;-2.16;100.00;96227.13;4960000;28;20479;-73
2021/12/10 06:48:22;;;;;;;16.80;12.33;;;;;;;-2.21;100.00;96215.34;4965050;28;20229;-73
2021/12/10 06:50:52;;;;;;;21.37;13.33;;;;;;;-2.16;100.00;96219.31;4952654;28;20711;-72
2021/12/10 06:53:22;;;;;;;16.60;12.20;;;;;;;-2.06;100.00;96223.63;4971709;28;20507;-72
2021/12/10 06:55:50;;;;;;;16.03;12.43;;;;;;;-2.10;100.00;96219.63;4930185;28;20465;-74
2021/12/10 06:58:19;;;;;;;15.23;12.00;;;;;;;-2.01;100.00;96222.41;4958576;28;20485;-73
2021/12/10 07:00:51;;;;;;;15.13;11.87;;;;;;;-1.70;100.00;96225.03;4974546;28;20468;-75
2021/12/10 07:03:22;;;;;;;22.63;15.23;;;;;;;-1.75;100.00;96231.41;4956261;28;20509;-72
2021/12/10 07:05:52;;;;;;;17.93;11.93;;;;;;;-1.54;100.00;96221.91;4955274;28;20523;-73
2021/12/10 07:08:21;;;;;;;14.00;11.60;;;;;;;-1.54;100.00;96233.13;4959029;28;20649;-71
2021/12/10 07:10:50;;;;;;;17.00;11.23;;;;;;;-1.54;100.00;96220.13;4940861;28;20206;-74
2021/12/10 07:13:18;;;;;;;14.10;11.40;;;;;;;-1.36;100.00;96224.69;4961321;28;20594;-70
2021/12/10 07:15:48;;;;;;;18.00;12.07;;;;;;;-1.23;100.00;96227.06;4950961;28;20210;-73
2021/12/10 07:18:19;;;;;;;19.83;12.00;;;;;;;-1.23;100.00;96222.69;4960281;28;20233;-71
2021/12/10 07:20:48;;;;;;;17.67;12.97;;;;;;;-1.14;100.00;96222.84;4948134;28;20463;-74
2021/12/10 07:23:16;;;;;;;13.90;11.23;;;;;;;-1.24;100.00;96213.25;4970350;28;20214;-70
2021/12/10 07:25:45;;;;;;;20.67;11.97;;;;;;;-1.21;100.00;96219.94;4944352;28;20209;-73
2021/12/10 07:28:14;;;;;;;12.37;10.60;;;;;;;-1.21;100.00;96210.38;4955215;28;20227;-69
2021/12/10 07:30:42;;;;;;;16.70;11.50;;;;;;;-1.04;100.00;96208.06;4971566;28;20221;-74
2021/12/10 07:33:10;;;;;;;17.03;10.60;;;;;;;-1.31;100.00;96206.94;4945644;28;20233;-70
2021/12/10 07:35:42;;;;;;;15.33;11.47;;;;;;;-1.17;100.00;96206.56;4972100;28;20206;-75
2021/12/10 07:38:10;;;;;;;11.60;10.20;;;;;;;-1.03;100.00;96196.69;4945528;28;20736;-70
2021/12/10 07:40:38;;;;;;;14.27;10.97;;;;;;;-1.07;100.00;96198.78;4970661;28;21031;-74
2021/12/10 07:43:08;;;;;;;17.17;11.17;;;;;;;-0.98;100.00;96196.31;4941848;28;20667;-70
2021/12/10 07:45:36;;;;;;;19.37;10.83;;;;;;;-0.73;100.00;96184.53;4958192;28;20682;-72
2021/12/10 07:48:08;;;;;;;14.03;9.77;;;;;;;-0.49;100.00;96175.47;4958870;28;20592;-73
2021/12/10 07:50:40;;;;;;;14.67;10.53;;;;;;;-0.77;100.00;96175.38;4957364;28;20218;-73
2021/12/10 07:53:10;;;;;;;11.87;9.90;;;;;;;-0.89;100.00;96175.50;4958844;28;20472;-73
2021/12/10 07:55:40;;;;;;;18.43;9.97;;;;;;;-0.65;100.00;96178.66;4963538;28;20521;-75
2021/12/10 07:58:08;;;;;;;13.17;11.13;;;;;;;-0.70;100.00;96170.44;4932720;28;20339;-69
2021/12/10 08:00:40;;;;;;;15.60;11.13;;;;;;;-0.69;100.00;96167.69;4958259;28;20551;-73
2021/12/10 08:03:09;;;;;;;12.87;10.57;;;;;;;-0.71;100.00;96161.78;4947173;28;20297;-69
2021/12/10 08:05:37;;;;;;;15.57;10.90;;;;;;;-0.65;100.00;96158.63;4972032;28;20362;-74
2021/12/10 08:08:06;;;;;;;17.23;10.80;;;;;;;-0.43;100.00;96148.88;4955551;28;21475;-72
2021/12/10 08:10:38;;;;;;;16.27;10.87;;;;;;;-0.61;100.00;96154.00;4957488;28;20451;-72
2021/12/10 08:13:06;;;;;;;13.20;10.50;;;;;;;-0.68;100.00;96132.91;4936061;28;20710;-70
2021/12/10 08:15:35;;;;;;;12.27;10.07;;;;;;;-0.81;100.00;96134.97;4952834;28;20220;-73
2021/12/10 08:18:04;;;;;;;10.00;9.00;;;;;;;-0.79;100.00;96140.88;4957555;28;20977;-71
2021/12/10 08:20:33;;;;;;;13.47;10.40;;;;;;;-1.00;100.00;96139.22;4953765;28;20610;-72
2021/12/10 08:23:01;;;;;;;13.00;9.63;;;;;;;-0.88;100.00;96138.13;4970801;28;20303;-70
2021/12/10 08:25:30;;;;;;;10.60;8.00;;;;;;;-0.88;100.00;96135.53;4960500;28;20206;-71
2021/12/10 08:28:00;;;;;;;11.27;9.30;;;;;;;-0.99;100.00;96129.66;4957619;28;20536;-70
2021/12/10 08:30:29;;;;;;;13.43;8.97;;;;;;;-0.88;100.00;96130.34;4929169;28;20543;-73
2021/12/10 08:32:58;;;;;;;16.83;8.73;;;;;;;-0.70;100.00;96127.03;4948549;28;20987;-72
2021/12/10 08:35:29;;;;;;;9.93;8.70;;;;;;;-0.82;100.00;96122.94;4959046;28;20214;-69
2021/12/10 08:38:00;;;;;;;10.37;9.00;;;;;;;-0.66;100.00;96115.38;4954806;28;20861;-70
2021/12/10 08:40:34;;;;;;;9.70;8.03;;;;;;;-0.72;100.00;96115.94;4970047;28;20210;-75
2021/12/10 08:43:04;;;;;;;12.30;9.07;;;;;;;-0.82;100.00;96109.94;4957295;28;20421;-71
2021/12/10 08:45:34;;;;;;;11.10;9.40;;;;;;;-0.75;100.00;96101.44;4926809;28;20705;-72
2021/12/10 08:48:03;;;;;;;11.50;10.30;;;;;;;-0.59;100.00;96108.63;4967049;28;20415;-73
2021/12/10 08:50:32;;;;;;;12.10;9.70;;;;;;;-0.48;100.00;96109.47;4946340;28;20260;-75
2021/12/10 08:53:04;;;;;;;12.10;9.30;;;;;;;-0.29;100.00;96108.56;4972412;28;20243;-70
2021/12/10 08:55:34;;;;;;;10.50;9.43;;;;;;;-0.35;100.00;96101.34;4968306;28;20813;-74
2021/12/10 08:58:02;;;;;;;15.77;12.73;;;;;;;-0.53;100.00;96098.66;4962012;28;20899;-68
2021/12/10 09:00:32;;;;;;;13.50;10.87;;;;;;;-0.52;100.00;96100.28;4939351;28;20571;-70
2021/12/10 09:03:00;;;;;;;11.73;9.80;;;;;;;-0.47;100.00;96090.28;4944087;28;20422;-70
2021/12/10 09:05:29;;;;;;;12.87;9.70;;;;;;;-0.35;100.00;96089.13;4961134;28;20222;-68
2021/12/10 09:07:58;;;;;;;10.67;9.57;;;;;;;-0.30;100.00;96084.31;4952190;28;20340;-70
2021/12/10 09:10:29;;;;;;;14.20;10.27;;;;;;;-0.35;100.00;96086.53;4967678;28;20735;-69
2021/12/10 09:12:58;;;;;;;12.20;9.57;;;;;;;-0.46;100.00;96076.31;4950347;28;20206;-71
2021/12/10 09:15:27;;;;;;;12.77;9.90;;;;;;;-0.58;100.00;96078.25;4925270;28;20217;-70
2021/12/10 09:17:58;;;;;;;12.97;9.93;;;;;;;-0.57;100.00;96077.28;4954963;28;20661;-70
2021/12/10 09:20:37;;;;;;;12.97;9.70;;;;;;;-0.61;100.00;96076.75;4959489;28;20225;-69
2021/12/10 09:23:08;;;;;;;10.90;9.50;;;;;;;-0.59;100.00;96072.22;4961285;28;20701;-71
2021/12/10 09:25:38;;;;;;;12.80;9.53;;;;;;;-0.52;100.00;96063.88;4964785;28;20677;-74
2021/12/10 09:28:06;;;;;;;12.57;9.80;;;;;;;-0.42;100.00;96069.84;4949282;28;20209;-70
2021/12/10 09:30:36;;;;;;;10.60;9.50;;;;;;;-0.21;100.00;96068.78;4938006;28;20224;-72
2021/12/10 09:33:05;;;;;;;13.20;10.60;;;;;;;-0.22;100.00;96059.34;4956921;28;20431;-73
2021/12/10 09:35:35;;;;;;;12.27;9.90;;;;;;;-0.13;100.00;96052.44;4967063;28;20229;-73
2021/12/10 09:38:04;;;;;;;12.87;10.70;;;;;;;-0.08;100.00;96050.22;4948860;28;21406;-71
2021/12/10 09:40:35;;;;;;;11.33;9.80;;;;;;;0.00;100.00;96042.53;4969714;28;20620;-72
2021/12/10 09:43:04;;;;;;;12.17;9.00;;;;;;;-0.06;100.00;96038.72;4963868;28;20293;-68
2021/12/10 09:45:34;;;;;;;9.90;8.83;;;;;;;-0.06;100.00;96024.88;4922811;28;20796;-73
2021/12/10 09:48:05;;;;;;;10.37;9.33;;;;;;;-0.05;100.00;96039.53;4953610;28;20384;-73
2021/12/10 09:50:40;;;;;;;13.30;8.60;;;;;;;-0.04;100.00;96028.13;4960718;28;20674;-73
2021/12/10 09:53:10;;;;;;;10.93;9.00;;;;;;;-0.09;100.00;96026.00;4965285;28;20217;-70
2021/12/10 09:55:43;;;;;;;16.53;8.43;;;;;;;-0.04;100.00;96009.91;4968162;28;20665;-72
2021/12/10 09:58:11;;;;;;;8.07;7.07;;;;;;;-0.01;100.00;96017.44;4971921;28;21283;-73
2021/12/10 10:00:41;;;;;;;9.83;6.93;;;;;;;-0.04;100.00;96008.13;4949104;28;20209;-76
2021/12/10 10:03:14;;;;;;;10.30;6.60;;;;;;;0.13;100.00;96000.47;4943817;28;20221;-73
2021/12/10 10:05:45;;;;;;;8.60;6.77;;;;;;;0.24;100.00;95991.63;4978713;28;20210;-74
2021/12/10 10:08:17;;;;;;;9.23;7.10;;;;;;;0.23;100.00;95984.78;4949075;28;20234;-67
2021/12/10 10:10:50;;;;;;;7.70;6.90;;;;;;;0.21;100.00;95977.13;4971777;28;20564;-72
2021/12/10 10:13:21;;;;;;;9.60;5.83;;;;;;;0.27;100.00;95970.50;4974000;28;20890;-70
2021/12/10 10:15:53;;;;;;;8.77;5.63;;;;;;;0.29;100.00;95952.94;4920193;28;20225;-73
2021/12/10 10:18:24;;;;;;;5.97;5.43;;;;;;;0.34;100.00;95955.09;4959070;28;20284;-72
2021/12/10 10:20:56;;;;;;;5.63;5.13;;;;;;;0.38;100.00;95959.03;4953963;28;20725;-70
2021/12/10 10:23:25;;;;;;;5.47;4.97;;;;;;;0.47;100.00;95957.31;4960453;28;20590;-69
2021/12/10 10:25:56;;;;;;;5.97;5.30;;;;;;;0.37;100.00;95950.38;4961751;28;20755;-70
2021/12/10 10:28:25;;;;;;;6.53;5.57;;;;;;;0.41;100.00;95950.91;4976766;28;20623;-71
2021/12/10 10:30:59;;;;;;;5.37;4.83;;;;;;;0.59;100.00;95950.09;4962132;28;20205;-69
2021/12/10 10:33:30;;;;;;;5.80;5.20;;;;;;;0.63;100.00;95948.81;4944285;28;20221;-71
2021/12/10 10:36:02;;;;;;;5.07;4.57;;;;;;;0.39;100.00;95939.81;4961829;28;20236;-73
2021/12/10 10:38:30;;;;;;;6.83;4.73;;;;;;;0.27;100.00;95924.44;4959705;28;20229;-69
2021/12/10 10:41:02;;;;;;;5.83;5.13;;;;;;;0.36;100.00;95922.69;4959331;28;20409;-69
2021/12/10 10:43:31;;;;;;;8.83;5.10;;;;;;;0.26;100.00;95929.78;4973219;28;20942;-70
2021/12/10 10:45:59;;;;;;;6.70;5.30;;;;;;;0.32;100.00;95920.56;4948265;28;20229;-68
2021/12/10 10:48:29;;;;;;;6.10;5.50;;;;;;;0.41;100.00;95919.63;4943881;28;20234;-70
2021/12/10 10:51:00;;;;;;;5.60;5.07;;;;;;;0.32;100.00;95925.75;4947971;28;20797;-70
2021/12/10 10:53:32;;;;;;;5.67;5.13;;;;;;;0.49;100.00;95934.53;4973979;28;20464;-71
2021/12/10 10:56:02;;;;;;;5.87;4.77;;;;;;;0.59;100.00;95930.03;4944833;28;20369;-71
2021/12/10 10:58:35;;;;;;;7.70;5.90;;;;;;;0.53;100.00;95938.47;4975125;28;20235;-70
2021/12/10 11:01:13;;;;;;;5.47;4.90;;;;;;;0.70;100.00;95940.19;4954098;28;20837;-71
2021/12/10 11:04:03;;;;;;;6.90;4.20;;;;;;;0.78;100.00;95943.88;4925613;28;20455;-71
2021/12/10 11:06:35;;;;;;;7.60;4.63;;;;;;;1.01;100.00;95941.56;4958027;28;20238;-72
2021/12/10 11:09:11;;;;;;;5.80;3.97;;;;;;;0.93;100.00;95939.69;4950581;28;20238;-70
2021/12/10 11:11:45;;;;;;;4.97;4.47;;;;;;;0.97;100.00;95937.63;4956251;28;20221;-73
2021/12/10 11:14:16;;;;;;;5.80;4.97;;;;;;;1.03;100.00;95938.78;4973654;28;20213;-69
2021/12/10 11:16:46;;;;;;;7.57;4.97;;;;;;;1.08;100.00;95939.13;4964479;28;21030;-73
2021/12/10 11:19:20;;;;;;;4.33;4.03;;;;;;;1.04;100.00;95924.75;4942127;28;20234;-72
2021/12/10 11:21:51;;;;;;;5.73;4.33;;;;;;;1.25;100.00;95924.38;4959072;28;20574;-73
2021/12/10 11:24:24;;;;;;;6.73;4.70;;;;;;;1.44;100.00;95925.91;4960041;28;20256;-71
2021/12/10 11:26:57;;;;;;;6.83;4.80;;;;;;;1.29;100.00;95923.06;4954666;28;20695;-71
2021/12/10 11:29:36;;;;;;;5.23;4.33;;;;;;;1.42;100.00;95915.66;4973551;28;20222;-72
2021/12/10 11:32:08;;;;;;;3.70;3.40;;;;;;;1.53;100.00;95913.72;4965849;28;20210;-70
2021/12/10 11:34:47;;;;;;;4.17;3.87;;;;;;;1.88;100.00;95917.88;4950571;28;20217;-74
2021/12/10 11:37:17;;;;;;;7.30;3.40;;;;;;;1.72;100.00;95912.63;4959483;28;20222;-70
2021/12/10 11:39:49;;;;;;;4.57;4.17;;;;;;;1.75;100.00;95912.28;4961766;28;20325;-74
2021/12/10 11:42:36;;;;;;;4.13;3.83;;;;;;;1.79;100.00;95918.03;4960235;28;20641;-70
2021/12/10 11:45:17;;;;;;;4.20;3.77;;;;;;;1.87;100.00;95915.44;4969827;28;20422;-72